Time;durP1;ratioP1;P1;durP2;ratioP2;P2;SDS_P1;SDS_P2;PMS_P1;PMS_P2;Temp;Humidity;BMP_temperature;BMP_pressure;BME280_temperature;BME280_humidity;BME280_pressure;Samples;Min_cycle;Max_cycle;Signal;HPM_P1;HPM_P2
2022/09/26 00:01:22;;;;;;;3.00;1.50;;;11.00;99.90;;;;;;5019952;28;20084;-85
2022/09/26 00:03:51;;;;;;;5.07;1.73;;;11.00;99.90;;;;;;5029472;28;20077;-84
2022/09/26 00:06:18;;;;;;;3.47;1.60;;;11.10;99.90;;;;;;5032675;28;20124;-84
2022/09/26 00:08:45;;;;;;;2.67;1.58;;;11.10;99.90;;;;;;5026198;28;20524;-85
2022/09/26 00:11:13;;;;;;;3.60;2.13;;;11.10;99.90;;;;;;5015109;28;20116;-83
2022/09/26 00:13:41;;;;;;;4.00;1.55;;;11.10;99.90;;;;;;5016598;28;20692;-88
2022/09/26 00:16:08;;;;;;;3.28;1.42;;;11.10;99.90;;;;;;5021484;28;20108;-87
2022/09/26 00:18:34;;;;;;;2.78;1.20;;;11.10;99.90;;;;;;5020935;28;20099;-84
2022/09/26 00:21:18;;;;;;;1.55;1.15;;;11.10;99.90;;;;;;5020376;28;20483;-86
2022/09/26 00:23:45;;;;;;;1.70;1.42;;;11.00;99.90;;;;;;5013663;28;20538;-85
2022/09/26 00:26:12;;;;;;;5.88;1.33;;;11.00;99.90;;;;;;5022706;28;20053;-85
2022/09/26 00:28:39;;;;;;;3.75;1.25;;;11.00;99.90;;;;;;5038022;28;20045;-84
2022/09/26 00:31:06;;;;;;;3.50;1.60;;;11.00;99.90;;;;;;5020197;28;20041;-85
2022/09/26 00:33:32;;;;;;;3.38;1.40;;;11.00;99.90;;;;;;5029103;28;20057;-86
2022/09/26 00:35:58;;;;;;;3.30;1.27;;;11.00;99.90;;;;;;5016676;28;20518;-85
2022/09/26 00:38:24;;;;;;;4.05;1.50;;;11.00;99.90;;;;;;4997884;28;20072;-84
2022/09/26 00:40:50;;;;;;;4.18;1.73;;;11.00;99.90;;;;;;5032861;28;20053;-84
2022/09/26 00:43:31;;;;;;;3.25;1.88;;;11.00;99.90;;;;;;5020525;28;20081;-86
2022/09/26 00:46:01;;;;;;;3.00;1.50;;;11.00;99.90;;;;;;5032946;28;20188;-85
2022/09/26 00:48:29;;;;;;;5.50;1.65;;;11.00;99.90;;;;;;5015064;28;20115;-87
2022/09/26 00:50:55;;;;;;;5.07;1.70;;;11.00;99.90;;;;;;5030273;28;20053;-84
2022/09/26 00:53:26;;;;;;;4.45;1.25;;;10.90;99.90;;;;;;5013759;28;20476;-83
2022/09/26 00:55:57;;;;;;;3.67;1.60;;;10.90;99.90;;;;;;5027316;28;20159;-86
2022/09/26 00:58:34;;;;;;;4.65;1.70;;;10.90;99.90;;;;;;5032669;28;20392;-84
2022/09/26 01:01:00;;;;;;;3.22;1.80;;;11.00;99.90;;;;;;5035693;28;20052;-85
2022/09/26 01:03:28;;;;;;;2.30;1.65;;;10.90;99.90;;;;;;5037848;28;20129;-82
2022/09/26 01:05:55;;;;;;;4.88;1.60;;;10.90;99.90;;;;;;5037366;28;20046;-84
2022/09/26 01:08:26;;;;;;;4.18;1.90;;;10.90;99.90;;;;;;5010378;28;20041;-88
2022/09/26 01:10:52;;;;;;;7.90;2.58;;;10.90;99.90;;;;;;5029315;28;20053;-86
2022/09/26 01:13:18;;;;;;;5.25;1.42;;;10.90;99.90;;;;;;5017617;28;20131;-82
2022/09/26 01:15:44;;;;;;;3.95;2.08;;;10.90;99.90;;;;;;5020386;28;20064;-84
2022/09/26 01:18:10;;;;;;;5.93;1.58;;;10.90;99.90;;;;;;5008842;28;20041;-88
2022/09/26 01:20:42;;;;;;;3.75;1.73;;;10.90;99.90;;;;;;5011275;28;20052;-82
2022/09/26 01:23:26;;;;;;;5.75;1.73;;;10.90;99.90;;;;;;5016238;28;20132;-85
2022/09/26 01:26:23;;;;;;;5.15;2.05;;;10.90;99.90;;;;;;5001464;28;20045;-84
2022/09/26 01:29:26;;;;;;;4.35;2.17;;;10.90;99.90;;;;;;5003203;28;20141;-84
2022/09/26 01:35:22;;;;;;;3.55;1.88;;;11.00;99.90;;;;;;5010049;28;20063;-83
2022/09/26 01:38:22;;;;;;;5.10;2.03;;;11.00;99.90;;;;;;5026594;28;20048;-85
2022/09/26 01:41:08;;;;;;;2.83;2.33;;;11.00;99.90;;;;;;5008382;28;20400;-85
2022/09/26 01:43:56;;;;;;;4.15;1.83;;;11.00;99.90;;;;;;5013858;28;20054;-83
2022/09/26 01:46:53;;;;;;;3.00;2.08;;;11.00;99.90;;;;;;5015718;28;20393;-84
2022/09/26 01:49:37;;;;;;;4.75;1.92;;;11.00;99.90;;;;;;5019401;28;20042;-83
2022/09/26 01:52:23;;;;;;;5.10;2.25;;;11.00;99.90;;;;;;5011159;28;20044;-84
2022/09/26 01:55:13;;;;;;;3.03;2.08;;;11.10;99.90;;;;;;5034069;28;20052;-83
2022/09/26 01:57:50;;;;;;;4.70;1.75;;;11.10;99.90;;;;;;4999683;28;20231;-90
2022/09/26 02:00:17;;;;;;;4.25;2.28;;;11.10;99.90;;;;;;5016637;28;20045;-85
2022/09/26 02:02:46;;;;;;;2.90;1.73;;;11.10;99.90;;;;;;5023003;28;20284;-89
2022/09/26 02:05:18;;;;;;;3.95;1.80;;;11.10;99.90;;;;;;5032805;28;20041;-82
2022/09/26 02:08:10;;;;;;;;;;;11.10;99.90;;;;;;5018430;28;20067;-83
2022/09/26 02:10:43;;;;;;;5.80;2.50;;;11.10;99.90;;;;;;4993495;28;19921;-83
2022/09/26 02:13:15;;;;;;;3.40;2.22;;;11.10;99.90;;;;;;5017699;28;20041;-84
2022/09/26 02:15:41;;;;;;;;;;;11.10;99.90;;;;;;5017414;28;20044;-83
2022/09/26 02:18:23;;;;;;;5.80;2.33;;;11.20;99.90;;;;;;5016177;28;19921;-83
2022/09/26 02:20:54;;;;;;;5.13;2.08;;;11.20;99.90;;;;;;5022545;28;20476;-85
2022/09/26 02:23:21;;;;;;;3.28;2.28;;;11.10;99.90;;;;;;5033554;28;20039;-85
2022/09/26 02:25:47;;;;;;;3.75;2.00;;;11.20;99.90;;;;;;5025854;28;20050;-83
2022/09/26 02:28:14;;;;;;;4.93;2.08;;;11.20;99.90;;;;;;5031907;28;20071;-83
2022/09/26 02:30:43;;;;;;;5.45;2.53;;;11.20;99.90;;;;;;5005181;28;20057;-82
2022/09/26 02:33:09;;;;;;;6.10;2.30;;;11.20;99.90;;;;;;5031097;28;20072;-89
2022/09/26 02:35:53;;;;;;;5.18;2.53;;;11.20;99.90;;;;;;5021287;28;20088;-84
2022/09/26 02:38:19;;;;;;;6.07;2.20;;;11.20;99.90;;;;;;5003658;28;20396;-84
2022/09/26 02:40:59;;;;;;;5.97;2.28;;;11.20;99.90;;;;;;5013524;28;20415;-84
2022/09/26 02:43:53;;;;;;;6.38;2.40;;;11.20;99.90;;;;;;5015449;28;20402;-83
2022/09/26 02:46:38;;;;;;;4.35;2.20;;;11.20;99.90;;;;;;5010376;28;20120;-85
2022/09/26 02:49:28;;;;;;;5.57;2.33;;;11.20;99.90;;;;;;5015013;28;20045;-83
2022/09/26 02:52:21;;;;;;;8.40;2.78;;;11.20;99.90;;;;;;5013877;28;20041;-84
2022/09/26 02:55:20;;;;;;;6.45;2.78;;;11.20;99.90;;;;;;5017152;28;20128;-87
2022/09/26 02:58:10;;;;;;;6.45;2.92;;;11.20;99.90;;;;;;4965320;28;20319;-84
2022/09/26 03:00:58;;;;;;;4.68;2.83;;;11.20;99.90;;;;;;5006466;28;20049;-83
2022/09/26 03:03:51;;;;;;;5.65;3.33;;;11.20;99.90;;;;;;5013841;28;20096;-84
2022/09/26 03:06:21;;;;;;;2.70;2.35;;;11.20;99.90;;;;;;5007634;28;20053;-84
2022/09/26 03:08:50;;;;;;;6.28;3.20;;;11.20;99.90;;;;;;5017843;28;20052;-83
2022/09/26 03:11:20;;;;;;;6.93;2.70;;;11.10;99.90;;;;;;5017621;28;20267;-84
2022/09/26 03:13:49;;;;;;;9.27;3.10;;;11.10;99.90;;;;;;5013825;28;20136;-84
2022/09/26 03:16:16;;;;;;;10.60;3.10;;;11.10;99.90;;;;;;5021980;28;20043;-83
2022/09/26 03:18:52;;;;;;;4.95;3.00;;;11.10;99.90;;;;;;4989767;28;20049;-86
2022/09/26 03:21:19;;;;;;;7.28;3.10;;;11.10;99.90;;;;;;5020213;28;20077;-86
2022/09/26 03:23:45;;;;;;;8.35;3.00;;;11.00;99.90;;;;;;5008310;28;20103;-83
2022/09/26 03:26:15;;;;;;;11.07;3.85;;;11.00;99.90;;;;;;5015262;28;20045;-83
2022/09/26 03:28:41;;;;;;;4.97;3.10;;;11.00;99.90;;;;;;5017489;28;20045;-83
2022/09/26 03:31:06;;;;;;;6.82;3.08;;;11.00;99.90;;;;;;5019676;28;20052;-83
2022/09/26 03:33:33;;;;;;;6.50;2.75;;;11.00;99.90;;;;;;5017037;28;20053;-83
2022/09/26 03:35:59;;;;;;;7.53;3.35;;;11.00;99.90;;;;;;5017949;28;20083;-83
2022/09/26 03:38:25;;;;;;;3.97;3.22;;;11.00;99.90;;;;;;5015852;28;20049;-87
2022/09/26 03:40:53;;;;;;;4.38;3.25;;;11.00;99.90;;;;;;5003524;28;20089;-82
2022/09/26 03:43:18;;;;;;;4.80;2.90;;;11.00;99.90;;;;;;5029410;28;20076;-83
2022/09/26 03:45:44;;;;;;;9.90;4.47;;;10.90;99.90;;;;;;5009414;28;20052;-83
2022/09/26 03:48:09;;;;;;;7.25;3.75;;;10.90;99.90;;;;;;5004936;28;20096;-83
2022/09/26 03:50:35;;;;;;;8.43;3.53;;;10.90;99.90;;;;;;5020528;28;20086;-86
2022/09/26 03:53:01;;;;;;;4.75;3.20;;;10.90;99.90;;;;;;5025717;28;20126;-83
2022/09/26 03:55:27;;;;;;;5.60;3.10;;;10.90;99.90;;;;;;5020105;28;20056;-84
2022/09/26 03:57:53;;;;;;;9.80;3.20;;;10.90;99.90;;;;;;4998798;28;20103;-85
2022/09/26 04:00:18;;;;;;;6.30;3.20;;;10.90;99.90;;;;;;5018820;28;20049;-84
2022/09/26 04:02:44;;;;;;;6.95;4.00;;;10.90;99.90;;;;;;5005483;28;20087;-82
2022/09/26 04:05:10;;;;;;;7.47;3.88;;;10.90;99.90;;;;;;5021485;28;20436;-84
2022/09/26 04:07:35;;;;;;;9.77;3.40;;;10.90;99.90;;;;;;4965048;28;20441;-84
2022/09/26 04:10:01;;;;;;;6.25;3.33;;;10.90;99.90;;;;;;5021352;28;20081;-84
2022/09/26 04:12:26;;;;;;;7.00;3.03;;;10.90;99.90;;;;;;5031244;28;20377;-84
2022/09/26 04:14:53;;;;;;;6.60;3.80;;;10.90;99.90;;;;;;5018890;28;20083;-83
2022/09/26 04:17:19;;;;;;;8.35;4.03;;;10.90;99.90;;;;;;5010517;28;20365;-84
2022/09/26 04:19:44;;;;;;;7.32;4.05;;;10.90;99.90;;;;;;5016232;28;20057;-84
2022/09/26 04:22:10;;;;;;;6.60;3.90;;;10.90;99.90;;;;;;5019722;28;20541;-83
2022/09/26 04:24:36;;;;;;;5.68;3.70;;;10.90;99.90;;;;;;5038511;28;20446;-86
2022/09/26 04:27:02;;;;;;;6.35;3.22;;;10.90;99.90;;;;;;5026233;28;20045;-83
2022/09/26 04:29:28;;;;;;;6.18;3.55;;;10.90;99.90;;;;;;5020421;28;20500;-83
2022/09/26 04:31:54;;;;;;;9.38;4.45;;;10.80;99.90;;;;;;5013833;28;20045;-84
2022/09/26 04:34:23;;;;;;;8.27;4.20;;;10.80;99.90;;;;;;5019858;28;20072;-83
2022/09/26 04:36:50;;;;;;;8.38;4.57;;;10.80;99.90;;;;;;4997672;28;20053;-83
2022/09/26 04:39:16;;;;;;;8.88;4.20;;;10.80;99.90;;;;;;4997595;28;20061;-88
2022/09/26 04:41:42;;;;;;;9.32;4.70;;;10.80;99.90;;;;;;5033654;28;20053;-84
2022/09/26 04:44:09;;;;;;;5.78;3.75;;;10.80;99.90;;;;;;5035143;28;20131;-84
2022/09/26 04:46:35;;;;;;;9.55;4.85;;;10.80;99.90;;;;;;5037362;28;20049;-83
2022/09/26 04:49:01;;;;;;;8.18;4.43;;;10.80;99.90;;;;;;5031678;28;20056;-84
2022/09/26 04:51:30;;;;;;;7.82;5.10;;;10.80;99.90;;;;;;5005933;28;20049;-88
2022/09/26 04:53:56;;;;;;;12.50;5.38;;;10.80;99.90;;;;;;5017842;28;20506;-85
2022/09/26 04:56:23;;;;;;;8.60;4.15;;;10.80;99.90;;;;;;5018449;28;20041;-84
2022/09/26 04:58:49;;;;;;;11.27;4.90;;;10.80;99.90;;;;;;5037352;28;21350;-86
2022/09/26 05:01:18;;;;;;;7.40;4.90;;;10.80;99.90;;;;;;4996881;28;20041;-86
2022/09/26 05:03:44;;;;;;;12.10;4.70;;;10.80;99.90;;;;;;5031406;28;20107;-83
2022/09/26 05:06:11;;;;;;;8.38;4.95;;;10.80;99.90;;;;;;5024992;28;20040;-83
2022/09/26 05:08:39;;;;;;;8.18;4.38;;;10.80;99.90;;;;;;5004051;28;20077;-91
2022/09/26 05:11:06;;;;;;;7.75;4.95;;;10.80;99.90;;;;;;5007067;28;20439;-87
2022/09/26 05:13:32;;;;;;;9.13;4.30;;;10.80;99.90;;;;;;5027587;28;20106;-83
2022/09/26 05:15:59;;;;;;;6.30;4.25;;;10.80;99.90;;;;;;5029018;28;20049;-84
2022/09/26 05:18:26;;;;;;;6.70;4.22;;;10.80;99.90;;;;;;5016787;28;20052;-85
2022/09/26 05:20:53;;;;;;;7.55;4.30;;;10.80;99.90;;;;;;5028339;28;20075;-83
2022/09/26 05:26:18;;;;;;;13.27;4.63;;;10.70;99.90;;;;;;5014311;28;20135;-83
2022/09/26 05:28:51;;;;;;;9.55;5.18;;;10.80;99.90;;;;;;5037535;28;20475;-83
2022/09/26 05:31:17;;;;;;;;;;;10.70;99.90;;;;;;5019082;28;20073;-84
2022/09/26 05:33:43;;;;;;;6.97;4.03;;;10.70;99.90;;;;;;5014080;28;19943;-83
2022/09/26 05:36:09;;;;;;;6.15;3.78;;;10.70;99.90;;;;;;5008885;28;20041;-85
2022/09/26 05:38:35;;;;;;;10.82;4.25;;;10.70;99.90;;;;;;5015688;28;20045;-83
2022/09/26 05:41:01;;;;;;;8.07;4.20;;;10.70;99.90;;;;;;4995950;28;20442;-87
2022/09/26 05:43:28;;;;;;;7.47;4.45;;;10.70;99.90;;;;;;5013108;28;20041;-87
2022/09/26 05:46:14;;;;;;;10.32;4.28;;;10.70;99.90;;;;;;4996821;28;20050;-83
2022/09/26 05:48:40;;;;;;;6.05;3.85;;;10.60;99.90;;;;;;5025212;28;20048;-83
2022/09/26 05:51:14;;;;;;;9.85;4.15;;;10.60;99.90;;;;;;5026422;28;20045;-82
2022/09/26 05:53:42;;;;;;;10.27;4.70;;;10.60;99.90;;;;;;5018456;28;20045;-83
2022/09/26 05:56:09;;;;;;;7.90;4.03;;;10.60;99.90;;;;;;5014278;28;20080;-83
2022/09/26 05:58:37;;;;;;;8.82;4.75;;;10.60;99.90;;;;;;5026772;28;20505;-83
2022/09/26 06:01:06;;;;;;;7.93;3.88;;;10.60;99.90;;;;;;5030951;28;20456;-84
2022/09/26 06:03:33;;;;;;;10.45;4.43;;;10.60;99.90;;;;;;5016496;28;20152;-86
2022/09/26 06:06:08;;;;;;;8.40;3.75;;;10.60;99.90;;;;;;5016018;28;20040;-90
2022/09/26 06:08:35;;;;;;;7.80;4.45;;;10.60;99.90;;;;;;5017178;28;20136;-83
2022/09/26 06:11:06;;;;;;;5.88;4.00;;;10.60;99.90;;;;;;5023356;28;20037;-84
2022/09/26 06:13:33;;;;;;;5.85;3.67;;;10.60;99.90;;;;;;5044285;28;20053;-84
2022/09/26 06:16:05;;;;;;;11.35;4.00;;;10.60;99.90;;;;;;5029932;28;20041;-83
2022/09/26 06:18:35;;;;;;;7.40;3.65;;;10.60;99.90;;;;;;5021914;28;20492;-85
2022/09/26 06:21:06;;;;;;;7.88;3.90;;;10.60;99.90;;;;;;5017026;28;20069;-84
2022/09/26 06:23:35;;;;;;;5.97;3.78;;;10.60;99.90;;;;;;5016963;28;20452;-84
2022/09/26 06:26:07;;;;;;;6.97;4.30;;;10.60;99.90;;;;;;4997295;28;20131;-83
2022/09/26 06:28:36;;;;;;;;;;;10.60;99.90;;;;;;5035393;28;20142;-85
2022/09/26 06:31:13;;;;;;;8.57;3.72;;;10.60;99.90;;;;;;5008249;28;20403;-84
2022/09/26 06:33:39;;;;;;;8.10;3.65;;;10.60;99.90;;;;;;5008253;28;20444;-84
2022/09/26 06:36:07;;;;;;;5.40;2.97;;;10.60;99.90;;;;;;4999383;28;20041;-84
2022/09/26 06:38:34;;;;;;;9.05;3.05;;;10.60;99.90;;;;;;5028035;28;20059;-84
2022/09/26 06:41:00;;;;;;;4.70;3.13;;;10.60;99.90;;;;;;5017800;28;20520;-85
2022/09/26 06:43:26;;;;;;;8.68;2.92;;;10.60;99.90;;;;;;5025047;28;20344;-84
2022/09/26 06:45:52;;;;;;;5.03;3.33;;;10.60;99.90;;;;;;4989436;28;20041;-82
2022/09/26 06:48:21;;;;;;;5.60;3.25;;;10.60;99.90;;;;;;5017579;28;20049;-84
2022/09/26 06:50:51;;;;;;;4.35;2.63;;;10.60;99.90;;;;;;5012790;28;20488;-85
2022/09/26 06:53:16;;;;;;;8.93;2.50;;;10.70;99.90;;;;;;5020763;28;20433;-82
2022/09/26 06:55:42;;;;;;;7.35;2.92;;;10.70;99.90;;;;;;4984585;28;20123;-91
2022/09/26 06:58:08;;;;;;;4.00;2.50;;;10.70;99.90;;;;;;5047831;28;20081;-87
2022/09/26 07:00:34;;;;;;;3.70;2.08;;;10.70;99.90;;;;;;5036142;28;20049;-83
2022/09/26 07:03:00;;;;;;;5.32;2.78;;;10.70;99.90;;;;;;5022927;28;20084;-86
2022/09/26 07:05:25;;;;;;;8.45;2.85;;;10.70;99.90;;;;;;5018969;28;20045;-85
2022/09/26 07:07:52;;;;;;;3.30;2.45;;;10.70;99.90;;;;;;5020276;28;20041;-82
2022/09/26 07:10:18;;;;;;;5.68;2.30;;;10.70;99.90;;;;;;5030036;28;20053;-83
2022/09/26 07:12:46;;;;;;;8.82;3.03;;;10.70;99.90;;;;;;5018685;28;20121;-86
2022/09/26 07:15:17;;;;;;;6.97;2.65;;;10.70;99.90;;;;;;5031413;28;20054;-84
2022/09/26 07:17:43;;;;;;;6.03;2.38;;;10.70;99.90;;;;;;5015201;28;21641;-85
2022/09/26 07:20:18;;;;;;;6.25;2.45;;;10.70;99.90;;;;;;5015977;28;20053;-84
2022/09/26 07:22:44;;;;;;;6.35;2.30;;;10.70;99.90;;;;;;5001496;28;20045;-83
2022/09/26 07:25:10;;;;;;;11.15;3.35;;;10.60;99.90;;;;;;5049291;28;20511;-84
2022/09/26 07:27:37;;;;;;;7.97;3.20;;;10.60;99.90;;;;;;5044000;28;20075;-83
2022/09/26 07:30:05;;;;;;;4.15;2.13;;;10.60;99.90;;;;;;5020343;28;20038;-83
2022/09/26 07:32:31;;;;;;;5.50;2.60;;;10.60;99.90;;;;;;5035276;28;20056;-89
2022/09/26 07:35:02;;;;;;;7.95;2.75;;;10.60;99.90;;;;;;5004264;28;20045;-88
2022/09/26 07:37:28;;;;;;;5.38;2.60;;;10.70;99.90;;;;;;5038776;28;20472;-83
2022/09/26 07:39:54;;;;;;;9.68;2.75;;;10.60;99.90;;;;;;5013382;28;20373;-85
2022/09/26 07:42:20;;;;;;;6.28;3.15;;;10.60;99.90;;;;;;5030008;28;20041;-84
2022/09/26 07:44:46;;;;;;;6.82;2.97;;;10.60;99.90;;;;;;5009888;28;20065;-85
2022/09/26 07:50:13;;;;;;;4.90;2.50;;;10.60;99.90;;;;;;5029103;28;20529;-83
2022/09/26 07:52:44;;;;;;;4.80;2.08;;;10.60;99.90;;;;;;5016625;28;20067;-84
2022/09/26 07:55:14;;;;;;;5.18;2.72;;;10.60;99.90;;;;;;5045441;28;20063;-82
2022/09/26 07:57:40;;;;;;;6.03;2.63;;;10.70;99.90;;;;;;5026462;28;20120;-83
2022/09/26 08:00:11;;;;;;;5.20;2.67;;;10.70;99.90;;;;;;5028781;28;20120;-82
2022/09/26 08:02:41;;;;;;;4.50;2.60;;;10.70;99.90;;;;;;5030281;28;20044;-83
2022/09/26 08:05:08;;;;;;;7.13;2.60;;;10.80;99.90;;;;;;5005444;28;20098;-84
2022/09/26 08:07:35;;;;;;;10.35;2.90;;;10.90;99.90;;;;;;5017474;28;20099;-82
2022/09/26 08:10:04;;;;;;;5.72;2.30;;;11.00;99.90;;;;;;5042477;28;20041;-82
2022/09/26 08:12:38;;;;;;;4.55;1.88;;;11.00;99.90;;;;;;5017973;28;20045;-82
2022/09/26 08:15:05;;;;;;;5.43;2.45;;;11.10;99.90;;;;;;4999567;28;20045;-82
2022/09/26 08:17:32;;;;;;;3.47;2.20;;;11.20;99.90;;;;;;4993937;28;20421;-83
2022/09/26 08:19:59;;;;;;;4.30;2.60;;;11.30;99.90;;;;;;5023493;28;20107;-83
2022/09/26 08:22:26;;;;;;;3.55;1.83;;;11.30;99.90;;;;;;5016182;28;20487;-82
2022/09/26 08:24:54;;;;;;;8.27;2.60;;;11.30;99.90;;;;;;5032910;28;20074;-82
2022/09/26 08:27:21;;;;;;;4.32;1.90;;;11.30;99.90;;;;;;5007017;28;20053;-82
2022/09/26 08:29:50;;;;;;;4.47;2.00;;;11.40;99.90;;;;;;5019474;28;20068;-89
2022/09/26 08:32:18;;;;;;;3.63;1.88;;;11.40;99.90;;;;;;5018231;28;20069;-82
2022/09/26 08:34:45;;;;;;;9.35;2.33;;;11.40;99.90;;;;;;5034496;28;20060;-83
2022/09/26 08:37:12;;;;;;;3.28;2.40;;;11.50;99.90;;;;;;5003018;28;20080;-90
2022/09/26 08:39:38;;;;;;;8.43;2.58;;;11.50;99.90;;;;;;5035090;28;20069;-83
2022/09/26 08:42:27;;;;;;;7.70;2.85;;;11.50;99.90;;;;;;5025340;28;20537;-84
2022/09/26 08:48:35;;;;;;;3.13;1.88;;;11.60;99.90;;;;;;5016068;28;20171;-85
2022/09/26 08:51:22;;;;;;;5.05;2.28;;;11.60;99.90;;;;;;5019595;28;20060;-82
2022/09/26 08:53:56;;;;;;;4.88;2.60;;;11.60;99.90;;;;;;5019671;28;20059;-82
2022/09/26 08:56:32;;;;;;;2.97;1.60;;;11.60;99.90;;;;;;5013740;28;20055;-83
2022/09/26 08:59:02;;;;;;;4.75;2.40;;;11.60;99.90;;;;;;5017916;28;20080;-86
2022/09/26 09:01:31;;;;;;;4.25;2.22;;;11.70;99.90;;;;;;5005919;28;20046;-90
2022/09/26 09:04:10;;;;;;;6.90;2.20;;;11.70;99.90;;;;;;5037686;28;20079;-83
2022/09/26 09:06:36;;;;;;;4.70;1.70;;;11.70;99.90;;;;;;5021185;28;20048;-83
2022/09/26 09:09:02;;;;;;;6.00;2.20;;;11.80;99.90;;;;;;5017270;28;20503;-84
2022/09/26 09:11:46;;;;;;;5.32;2.60;;;11.80;99.90;;;;;;5033608;28;20056;-82
2022/09/26 09:14:30;;;;;;;7.45;2.45;;;11.90;99.90;;;;;;5022495;28;20488;-82
2022/09/26 09:17:01;;;;;;;3.75;2.20;;;11.90;99.90;;;;;;5006626;28;20053;-82
2022/09/26 09:19:38;;;;;;;5.03;1.98;;;12.00;99.90;;;;;;5016635;28;20049;-84
2022/09/26 09:22:34;;;;;;;7.55;2.58;;;11.90;99.90;;;;;;5021063;28;20060;-89
2022/09/26 09:25:30;;;;;;;5.60;2.20;;;11.90;99.90;;;;;;5040691;28;20037;-83
2022/09/26 09:28:15;;;;;;;5.05;2.53;;;11.90;99.90;;;;;;5037901;28;20040;-82
2022/09/26 09:30:54;;;;;;;6.72;2.58;;;11.90;99.90;;;;;;5007118;28;20045;-81
2022/09/26 09:33:22;;;;;;;5.63;2.92;;;11.90;99.90;;;;;;5037673;28;20438;-81
2022/09/26 09:35:55;;;;;;;11.55;2.65;;;11.90;99.90;;;;;;5022800;28;20486;-79
2022/09/26 09:38:33;;;;;;;4.78;2.17;;;11.90;99.90;;;;;;5013874;28;20456;-81
2022/09/26 09:41:03;;;;;;;6.32;2.88;;;11.90;99.90;;;;;;5037736;28;20067;-80
2022/09/26 09:43:50;;;;;;;7.65;2.38;;;11.90;99.90;;;;;;5023197;28;20492;-82
2022/09/26 09:46:31;;;;;;;7.07;2.72;;;11.90;99.90;;;;;;5037351;28;20080;-82
2022/09/26 09:49:13;;;;;;;4.13;2.58;;;11.90;99.90;;;;;;5041724;28;20112;-81
2022/09/26 09:51:50;;;;;;;4.97;2.97;;;11.90;99.90;;;;;;5040355;28;20041;-84
2022/09/26 09:54:23;;;;;;;13.52;8.75;;;11.90;99.90;;;;;;5038951;28;20083;-86
2022/09/26 09:57:07;;;;;;;6.85;3.33;;;12.00;99.90;;;;;;5038128;28;20037;-83
2022/09/26 09:59:57;;;;;;;12.90;5.15;;;11.90;99.90;;;;;;5025071;28;20050;-82
2022/09/26 10:02:29;;;;;;;6.50;3.05;;;11.90;99.90;;;;;;5014810;28;20045;-83
2022/09/26 10:05:23;;;;;;;4.28;2.78;;;11.90;99.90;;;;;;5021241;28;20116;-83
2022/09/26 10:07:58;;;;;;;6.30;3.67;;;11.90;99.90;;;;;;4989363;28;20432;-82
2022/09/26 10:10:38;;;;;;;9.00;2.45;;;11.90;99.90;;;;;;5012783;28;20500;-82
2022/09/26 10:13:05;;;;;;;5.72;2.65;;;11.90;99.90;;;;;;5011130;28;20041;-83
2022/09/26 10:15:33;;;;;;;5.45;2.30;;;12.00;99.90;;;;;;5015937;28;20049;-84
2022/09/26 10:18:21;;;;;;;5.30;2.47;;;12.00;99.90;;;;;;5004805;28;20045;-83
2022/09/26 10:20:53;;;;;;;7.18;3.10;;;12.00;99.90;;;;;;5035113;28;20046;-84
2022/09/26 10:23:25;;;;;;;5.03;2.30;;;12.00;99.90;;;;;;5036075;28;20040;-84
2022/09/26 10:25:59;;;;;;;4.72;3.40;;;12.10;99.90;;;;;;5011403;28;20468;-84
2022/09/26 10:28:54;;;;;;;5.28;2.45;;;12.00;99.90;;;;;;5011185;28;20838;-87
2022/09/26 10:31:30;;;;;;;7.00;2.95;;;12.10;99.90;;;;;;5019077;28;20052;-84
2022/09/26 10:34:00;;;;;;;5.60;2.50;;;12.10;99.90;;;;;;5048055;28;20040;-83
2022/09/26 10:36:32;;;;;;;8.88;2.90;;;12.00;99.90;;;;;;5033571;28;20464;-86
2022/09/26 10:41:48;;;;;;;5.50;2.88;;;12.10;99.90;;;;;;4997422;28;20081;-83
2022/09/26 10:44:41;;;;;;;5.82;2.78;;;12.10;99.90;;;;;;4994390;28;20160;-84
2022/09/26 10:47:17;;;;;;;3.22;2.35;;;12.10;99.90;;;;;;5008302;28;20065;-83
2022/09/26 10:49:58;;;;;;;6.13;3.17;;;12.10;99.90;;;;;;4994510;28;20049;-82
2022/09/26 10:52:33;;;;;;;6.13;3.20;;;12.00;99.90;;;;;;5031393;28;20511;-83
2022/09/26 10:55:08;;;;;;;4.63;2.60;;;11.90;99.90;;;;;;5031753;28;20416;-82
2022/09/26 10:57:39;;;;;;;26.80;14.45;;;11.90;99.90;;;;;;5011204;28;20392;-84
2022/09/26 11:00:07;;;;;;;5.57;3.10;;;11.90;99.90;;;;;;5023570;28;20048;-82
2022/09/26 11:02:35;;;;;;;5.82;2.65;;;11.90;99.90;;;;;;5017178;28;20370;-82
2022/09/26 11:08:10;;;;;;;3.58;1.83;;;11.90;99.90;;;;;;4977677;28;20148;-83
2022/09/26 11:10:40;;;;;;;5.03;2.70;;;12.00;99.90;;;;;;4998221;28;20488;-88
2022/09/26 11:13:19;;;;;;;4.90;2.40;;;11.90;99.90;;;;;;4985995;28;20090;-83
2022/09/26 11:15:51;;;;;;;3.42;2.08;;;11.90;99.90;;;;;;5009528;28;20067;-83
2022/09/26 11:18:30;;;;;;;5.70;2.65;;;12.00;99.90;;;;;;4998499;28;20435;-83
2022/09/26 11:21:06;;;;;;;5.28;2.33;;;12.00;99.90;;;;;;5026699;28;20049;-82
2022/09/26 11:23:48;;;;;;;3.33;2.53;;;12.00;99.90;;;;;;5036019;28;20049;-83
2022/09/26 11:26:32;;;;;;;4.75;2.35;;;12.00;99.90;;;;;;5031289;28;20129;-81
2022/09/26 11:29:33;;;;;;;4.80;2.22;;;12.00;99.90;;;;;;5017918;28;20065;-82
2022/09/26 11:31:59;;;;;;;7.75;2.80;;;12.00;99.90;;;;;;5027243;28;20121;-82
2022/09/26 11:34:30;;;;;;;4.82;2.70;;;12.00;99.90;;;;;;5001389;28;20639;-83
2022/09/26 11:37:29;;;;;;;7.15;2.78;;;12.00;99.90;;;;;;5025985;28;20049;-82
2022/09/26 11:40:16;;;;;;;4.95;3.05;;;12.10;99.90;;;;;;5017015;28;20599;-83
2022/09/26 11:43:01;;;;;;;7.13;3.33;;;12.10;99.90;;;;;;5012863;28;20470;-83
2022/09/26 11:46:13;;;;;;;7.85;2.58;;;12.10;99.90;;;;;;5035357;28;20447;-86
2022/09/26 11:49:14;;;;;;;4.65;2.47;;;12.10;99.90;;;;;;4996248;28;20057;-86
2022/09/26 11:51:50;;;;;;;5.10;2.47;;;12.10;99.90;;;;;;5040672;28;20115;-93
2022/09/26 11:54:55;;;;;;;4.40;1.73;;;12.10;99.90;;;;;;5002541;28;20549;-84
2022/09/26 11:57:36;;;;;;;3.38;2.72;;;12.10;99.90;;;;;;4963641;28;20473;-82
2022/09/26 12:00:14;;;;;;;3.70;2.37;;;12.10;99.90;;;;;;5020414;28;20072;-84
2022/09/26 12:02:45;;;;;;;3.25;2.72;;;12.20;99.90;;;;;;5036269;28;20123;-83
2022/09/26 12:05:24;;;;;;;4.57;2.22;;;12.20;99.90;;;;;;5005449;28;20060;-87
2022/09/26 12:08:08;;;;;;;4.25;2.50;;;12.20;99.90;;;;;;4999303;28;20060;-85
2022/09/26 12:10:44;;;;;;;4.45;2.38;;;12.20;99.90;;;;;;5021527;28;20053;-85
2022/09/26 12:13:19;;;;;;;6.97;4.28;;;12.20;99.90;;;;;;5012655;28;20053;-83
2022/09/26 12:15:58;;;;;;;3.97;1.80;;;12.10;99.90;;;;;;5030162;28;20520;-85
2022/09/26 12:18:52;;;;;;;3.88;1.98;;;12.20;99.90;;;;;;5017026;28;20045;-83
2022/09/26 12:25:10;;;;;;;5.75;2.20;;;12.10;99.90;;;;;;5015116;28;20147;-83
2022/09/26 12:28:07;;;;;;;3.90;1.90;;;12.10;99.90;;;;;;5011235;28;20049;-85
2022/09/26 12:30:41;;;;;;;4.20;1.90;;;12.20;99.90;;;;;;5015260;28;20053;-83
2022/09/26 12:33:19;;;;;;;5.40;1.63;;;12.20;99.90;;;;;;4995530;28;20029;-83
2022/09/26 12:36:04;;;;;;;2.05;1.77;;;12.20;99.90;;;;;;4999026;28;20056;-83
2022/09/26 12:38:59;;;;;;;2.13;1.45;;;12.30;99.90;;;;;;5012790;28;20045;-83
2022/09/26 12:42:18;;;;;;;2.03;1.20;;;12.20;99.90;;;;;;4993651;28;20045;-83
2022/09/26 12:45:03;;;;;;;2.38;1.58;;;12.30;99.90;;;;;;4988480;28;20061;-83
2022/09/26 12:47:56;;;;;;;2.72;1.30;;;12.20;99.90;;;;;;5016390;28;20480;-85
2022/09/26 12:50:29;;;;;;;2.38;1.33;;;12.20;99.90;;;;;;5034471;28;20068;-81
2022/09/26 12:53:18;;;;;;;4.07;1.30;;;12.20;99.90;;;;;;5015285;28;20496;-85
2022/09/26 12:56:05;;;;;;;2.28;1.60;;;12.20;99.90;;;;;;5015149;28;20449;-82
2022/09/26 12:58:50;;;;;;;17.33;3.50;;;12.20;99.90;;;;;;5012220;28;20046;-83
2022/09/26 13:01:57;;;;;;;2.45;1.70;;;12.20;99.90;;;;;;5017567;28;20045;-88
2022/09/26 13:04:52;;;;;;;3.03;2.05;;;12.20;99.90;;;;;;5011947;28;20049;-83
2022/09/26 13:07:26;;;;;;;1.88;1.30;;;12.20;99.90;;;;;;5032142;28;20099;-83
2022/09/26 13:10:14;;;;;;;5.47;1.75;;;12.30;99.90;;;;;;5028579;28;20049;-86
2022/09/26 13:12:48;;;;;;;4.28;1.50;;;12.30;99.90;;;;;;5017105;28;20080;-83
2022/09/26 13:15:42;;;;;;;2.60;1.13;;;12.30;99.90;;;;;;5035357;28;20507;-82
2022/09/26 13:18:24;;;;;;;3.35;1.30;;;12.40;99.90;;;;;;5016140;28;20053;-82
2022/09/26 13:21:01;;;;;;;1.50;1.23;;;12.30;99.90;;;;;;5033494;28;20056;-82
2022/09/26 13:23:37;;;;;;;2.63;1.27;;;12.30;99.90;;;;;;5044246;28;20543;-83
2022/09/26 13:26:08;;;;;;;1.88;1.20;;;12.40;99.90;;;;;;5019048;28;20752;-89
2022/09/26 13:28:41;;;;;;;1.15;1.05;;;12.40;99.90;;;;;;5018673;28;20446;-84
2022/09/26 13:31:17;;;;;;;1.70;1.30;;;12.40;99.90;;;;;;5036014;28;20045;-88
2022/09/26 13:33:55;;;;;;;2.33;1.40;;;12.50;99.90;;;;;;5000623;28;20083;-84
2022/09/26 13:36:22;;;;;;;2.17;1.20;;;12.50;99.90;;;;;;5016730;28;20124;-85
2022/09/26 13:39:02;;;;;;;1.35;1.23;;;12.50;99.90;;;;;;5016056;28;20080;-83
2022/09/26 13:41:34;;;;;;;1.42;1.15;;;12.60;99.90;;;;;;5018586;28;20041;-84
2022/09/26 13:44:07;;;;;;;1.00;0.88;;;12.70;99.90;;;;;;5018630;28;20041;-84